sensor_id;sensor_type;location;lat;lon;timestamp;pressure;altitude;pressure_sealevel;temperature;humidity
28911;BME280;16028;42.642;23.310;2023-08-21T00:01:36;94362.00;;;22.10;71.92
28911;BME280;16028;42.642;23.310;2023-08-21T00:04:03;94354.63;;;22.12;72.29
28911;BME280;16028;42.642;23.310;2023-08-21T00:06:29;94357.53;;;22.04;72.22
28911;BME280;16028;42.642;23.310;2023-08-21T00:08:56;94359.16;;;21.99;72.21
28911;BME280;16028;42.642;23.310;2023-08-21T00:11:23;94354.06;;;21.97;72.60
28911;BME280;16028;42.642;23.310;2023-08-21T00:13:51;94351.44;;;21.97;73.35
28911;BME280;16028;42.642;23.310;2023-08-21T00:16:18;94357.53;;;21.85;72.43
28911;BME280;16028;42.642;23.310;2023-08-21T00:18:45;94349.78;;;21.83;73.80
28911;BME280;16028;42.642;23.310;2023-08-21T00:21:12;94351.25;;;21.79;74.64
28911;BME280;16028;42.642;23.310;2023-08-21T00:23:38;94342.88;;;21.82;73.02
28911;BME280;16028;42.642;23.310;2023-08-21T00:26:05;94345.72;;;21.81;71.25
28911;BME280;16028;42.642;23.310;2023-08-21T00:28:32;94341.44;;;21.86;69.92
28911;BME280;16028;42.642;23.310;2023-08-21T00:31:02;94339.03;;;21.91;67.60
28911;BME280;16028;42.642;23.310;2023-08-21T00:33:30;94351.84;;;21.94;66.21
28911;BME280;16028;42.642;23.310;2023-08-21T00:35:57;94352.03;;;21.86;69.72
28911;BME280;16028;42.642;23.310;2023-08-21T00:38:24;94353.06;;;21.85;69.55
28911;BME280;16028;42.642;23.310;2023-08-21T00:40:52;94358.81;;;21.89;70.51
28911;BME280;16028;42.642;23.310;2023-08-21T00:43:18;94354.69;;;21.93;72.96
28911;BME280;16028;42.642;23.310;2023-08-21T00:45:46;94351.63;;;21.89;72.49
28911;BME280;16028;42.642;23.310;2023-08-21T00:48:15;94361.03;;;21.85;70.79
28911;BME280;16028;42.642;23.310;2023-08-21T00:50:43;94356.94;;;21.89;72.86
28911;BME280;16028;42.642;23.310;2023-08-21T00:53:11;94359.56;;;21.83;72.26
28911;BME280;16028;42.642;23.310;2023-08-21T00:55:38;94363.44;;;21.80;72.64
28911;BME280;16028;42.642;23.310;2023-08-21T00:58:05;94359.56;;;21.83;73.23
28911;BME280;16028;42.642;23.310;2023-08-21T01:00:34;94363.44;;;21.80;72.55
28911;BME280;16028;42.642;23.310;2023-08-21T01:03:01;94365.69;;;21.77;72.07
28911;BME280;16028;42.642;23.310;2023-08-21T01:05:29;94365.50;;;21.78;73.09
28911;BME280;16028;42.642;23.310;2023-08-21T01:08:00;94365.69;;;21.77;71.91
28911;BME280;16028;42.642;23.310;2023-08-21T01:10:36;94363.88;;;21.71;72.42
28911;BME280;16028;42.642;23.310;2023-08-21T01:13:10;94366.53;;;21.71;72.31
28911;BME280;16028;42.642;23.310;2023-08-21T01:15:39;94359.22;;;21.66;71.99
28911;BME280;16028;42.642;23.310;2023-08-21T01:18:07;94366.53;;;21.64;72.61
28911;BME280;16028;42.642;23.310;2023-08-21T01:20:36;94358.41;;;21.66;72.96
28911;BME280;16028;42.642;23.310;2023-08-21T01:23:04;94358.41;;;21.59;73.10
28911;BME280;16028;42.642;23.310;2023-08-21T01:25:32;94367.19;;;21.59;73.00
28911;BME280;16028;42.642;23.310;2023-08-21T01:27:59;94360.84;;;21.60;74.00
28911;BME280;16028;42.642;23.310;2023-08-21T01:30:28;94362.06;;;21.58;73.73
28911;BME280;16028;42.642;23.310;2023-08-21T01:32:59;94364.31;;;21.61;73.39
28911;BME280;16028;42.642;23.310;2023-08-21T01:35:28;94364.94;;;21.50;73.48
28911;BME280;16028;42.642;23.310;2023-08-21T01:37:56;94358.00;;;21.49;74.19
28911;BME280;16028;42.642;23.310;2023-08-21T01:40:26;94364.31;;;21.48;74.24
28911;BME280;16028;42.642;23.310;2023-08-21T01:42:55;94360.06;;;21.47;73.55
28911;BME280;16028;42.642;23.310;2023-08-21T01:45:22;94368.19;;;21.39;73.74
28911;BME280;16028;42.642;23.310;2023-08-21T01:47:49;94364.72;;;21.38;75.12
28911;BME280;16028;42.642;23.310;2023-08-21T01:50:16;94373.72;;;21.31;74.97
28911;BME280;16028;42.642;23.310;2023-08-21T01:52:42;94363.72;;;21.33;75.11
28911;BME280;16028;42.642;23.310;2023-08-21T01:55:09;94367.38;;;21.32;74.09
28911;BME280;16028;42.642;23.310;2023-08-21T01:57:37;94360.88;;;21.28;74.54
28911;BME280;16028;42.642;23.310;2023-08-21T02:00:09;94363.31;;;21.29;74.33
28911;BME280;16028;42.642;23.310;2023-08-21T02:02:36;94356.41;;;21.28;74.27
28911;BME280;16028;42.642;23.310;2023-08-21T02:05:04;94356.41;;;21.28;74.28
28911;BME280;16028;42.642;23.310;2023-08-21T02:07:30;94355.78;;;21.33;76.98
28911;BME280;16028;42.642;23.310;2023-08-21T02:09:57;94354.38;;;21.24;75.40
28911;BME280;16028;42.642;23.310;2023-08-21T02:12:24;94360.25;;;21.19;75.89
28911;BME280;16028;42.642;23.310;2023-08-21T02:14:51;94358.03;;;21.23;76.41
28911;BME280;16028;42.642;23.310;2023-08-21T02:17:19;94356.41;;;21.15;76.20
28911;BME280;16028;42.642;23.310;2023-08-21T02:19:46;94362.28;;;21.10;76.86
28911;BME280;16028;42.642;23.310;2023-08-21T02:22:12;94356.59;;;21.14;77.42
28911;BME280;16028;42.642;23.310;2023-08-21T02:24:39;94354.56;;;21.09;76.98
28911;BME280;16028;42.642;23.310;2023-08-21T02:27:06;94352.28;;;21.06;76.74
28911;BME280;16028;42.642;23.310;2023-08-21T02:29:32;94353.50;;;21.03;77.16
28911;BME280;16028;42.642;23.310;2023-08-21T02:31:59;94350.25;;;21.01;76.81
28911;BME280;16028;42.642;23.310;2023-08-21T02:34:27;94345.78;;;20.95;77.30
28911;BME280;16028;42.642;23.310;2023-08-21T02:36:54;94354.31;;;20.97;77.02
28911;BME280;16028;42.642;23.310;2023-08-21T02:39:21;94351.88;;;20.96;77.18
28911;BME280;16028;42.642;23.310;2023-08-21T02:41:48;94355.53;;;20.95;77.86
28911;BME280;16028;42.642;23.310;2023-08-21T02:44:14;94347.19;;;20.91;78.29
28911;BME280;16028;42.642;23.310;2023-08-21T02:46:41;94349.63;;;20.86;78.86
28911;BME280;16028;42.642;23.310;2023-08-21T02:49:08;94351.88;;;20.83;79.00
28911;BME280;16028;42.642;23.310;2023-08-21T02:51:36;94346.59;;;20.83;78.98
28911;BME280;16028;42.642;23.310;2023-08-21T02:54:03;94349.41;;;20.81;79.50
28911;BME280;16028;42.642;23.310;2023-08-21T02:56:29;94353.09;;;20.80;79.12
28911;BME280;16028;42.642;23.310;2023-08-21T02:58:56;94359.00;;;20.82;80.10
28911;BME280;16028;42.642;23.310;2023-08-21T03:01:23;94360.81;;;20.82;80.47
28911;BME280;16028;42.642;23.310;2023-08-21T03:03:50;94361.41;;;20.77;80.41
28911;BME280;16028;42.642;23.310;2023-08-21T03:06:16;94361.81;;;20.74;80.59
28911;BME280;16028;42.642;23.310;2023-08-21T03:08:44;94359.16;;;20.74;80.54
28911;BME280;16028;42.642;23.310;2023-08-21T03:11:11;94365.66;;;20.72;80.55
28911;BME280;16028;42.642;23.310;2023-08-21T03:13:38;94367.72;;;20.70;80.85
28911;BME280;16028;42.642;23.310;2023-08-21T03:16:05;94371.34;;;20.69;81.02
28911;BME280;16028;42.642;23.310;2023-08-21T03:18:32;94366.69;;;20.64;81.16
28911;BME280;16028;42.642;23.310;2023-08-21T03:20:58;94370.34;;;20.63;81.77
28911;BME280;16028;42.642;23.310;2023-08-21T03:23:25;94368.50;;;20.57;81.52
28911;BME280;16028;42.642;23.310;2023-08-21T03:25:53;94376.81;;;20.54;81.91
28911;BME280;16028;42.642;23.310;2023-08-21T03:28:20;94381.09;;;20.48;82.65
28911;BME280;16028;42.642;23.310;2023-08-21T03:30:47;94376.81;;;20.47;82.47
28911;BME280;16028;42.642;23.310;2023-08-21T03:33:14;94378.22;;;20.43;82.41
28911;BME280;16028;42.642;23.310;2023-08-21T03:35:40;94385.53;;;20.41;82.28
28911;BME280;16028;42.642;23.310;2023-08-21T03:38:07;94383.50;;;20.43;82.58
28911;BME280;16028;42.642;23.310;2023-08-21T03:40:34;94382.88;;;20.41;82.84
28911;BME280;16028;42.642;23.310;2023-08-21T03:43:02;94379.59;;;20.39;82.93
28911;BME280;16028;42.642;23.310;2023-08-21T03:45:29;94378.19;;;20.37;83.60
28911;BME280;16028;42.642;23.310;2023-08-21T03:47:56;94374.13;;;20.34;83.84
28911;BME280;16028;42.642;23.310;2023-08-21T03:50:22;94373.09;;;20.35;83.69
28911;BME280;16028;42.642;23.310;2023-08-21T03:52:49;94375.94;;;20.34;83.95
28911;BME280;16028;42.642;23.310;2023-08-21T03:55:16;94385.25;;;20.30;83.95
28911;BME280;16028;42.642;23.310;2023-08-21T03:57:43;94382.22;;;20.33;83.66
28911;BME280;16028;42.642;23.310;2023-08-21T04:00:12;94379.41;;;20.34;83.71
28911;BME280;16028;42.642;23.310;2023-08-21T04:02:39;94372.06;;;20.36;83.98
28911;BME280;16028;42.642;23.310;2023-08-21T04:05:06;94372.47;;;20.33;84.20
28911;BME280;16028;42.642;23.310;2023-08-21T04:07:33;94383.25;;;20.32;83.64
28911;BME280;16028;42.642;23.310;2023-08-21T04:10:00;94381.81;;;20.36;82.50
28911;BME280;16028;42.642;23.310;2023-08-21T04:12:26;94374.97;;;20.41;84.58
28911;BME280;16028;42.642;23.310;2023-08-21T04:14:53;94377.38;;;20.36;84.42
28911;BME280;16028;42.642;23.310;2023-08-21T04:17:22;94392.50;;;20.69;78.42
28911;BME280;16028;42.642;23.310;2023-08-21T04:19:50;94389.66;;;20.57;78.87
28911;BME280;16028;42.642;23.310;2023-08-21T04:22:17;94381.91;;;20.55;82.30
28911;BME280;16028;42.642;23.310;2023-08-21T04:24:44;94387.19;;;20.55;82.71
28911;BME280;16028;42.642;23.310;2023-08-21T04:27:11;94394.78;;;20.78;79.37
28911;BME280;16028;42.642;23.310;2023-08-21T04:29:38;94393.34;;;20.69;82.24
28911;BME280;16028;42.642;23.310;2023-08-21T04:32:05;94396.38;;;20.66;82.67
28911;BME280;16028;42.642;23.310;2023-08-21T04:34:33;94398.06;;;20.80;79.91
28911;BME280;16028;42.642;23.310;2023-08-21T04:37:00;94397.00;;;20.81;80.83
28911;BME280;16028;42.642;23.310;2023-08-21T04:39:26;94398.44;;;20.84;82.73
28911;BME280;16028;42.642;23.310;2023-08-21T04:41:53;94401.91;;;20.84;81.50
28911;BME280;16028;42.642;23.310;2023-08-21T04:44:20;94398.03;;;20.87;81.70
28911;BME280;16028;42.642;23.310;2023-08-21T04:46:48;94400.69;;;20.93;82.59
28911;BME280;16028;42.642;23.310;2023-08-21T04:49:15;94394.22;;;21.02;79.07
28911;BME280;16028;42.642;23.310;2023-08-21T04:51:43;94397.25;;;21.06;78.90
28911;BME280;16028;42.642;23.310;2023-08-21T04:54:09;94397.09;;;21.14;79.56
28911;BME280;16028;42.642;23.310;2023-08-21T04:56:36;94400.38;;;21.23;79.18
28911;BME280;16028;42.642;23.310;2023-08-21T04:59:03;94396.31;;;21.27;82.00
28911;BME280;16028;42.642;23.310;2023-08-21T05:01:30;94404.44;;;21.38;79.97
28911;BME280;16028;42.642;23.310;2023-08-21T05:03:56;94412.38;;;21.71;76.05
28911;BME280;16028;42.642;23.310;2023-08-21T05:06:23;94422.56;;;21.81;74.60
28911;BME280;16028;42.642;23.310;2023-08-21T05:08:51;94413.78;;;21.80;75.41
28911;BME280;16028;42.642;23.310;2023-08-21T05:11:18;94419.09;;;21.80;75.36
28911;BME280;16028;42.642;23.310;2023-08-21T05:13:45;94427.44;;;21.84;77.86
28911;BME280;16028;42.642;23.310;2023-08-21T05:16:11;94430.91;;;21.78;77.74
28911;BME280;16028;42.642;23.310;2023-08-21T05:18:38;94428.25;;;21.78;77.88
28911;BME280;16028;42.642;23.310;2023-08-21T05:21:05;94430.50;;;21.81;76.83
28911;BME280;16028;42.642;23.310;2023-08-21T05:23:31;94429.69;;;21.80;76.41
28911;BME280;16028;42.642;23.310;2023-08-21T05:26:00;94434.97;;;21.80;77.66
28911;BME280;16028;42.642;23.310;2023-08-21T05:28:26;94428.25;;;22.10;75.77
28911;BME280;16028;42.642;23.310;2023-08-21T05:30:53;94437.13;;;22.42;73.86
28911;BME280;16028;42.642;23.310;2023-08-21T05:33:20;94434.47;;;22.42;74.09
28911;BME280;16028;42.642;23.310;2023-08-21T05:35:47;94425.81;;;22.66;72.26
28911;BME280;16028;42.642;23.310;2023-08-21T05:38:13;94429.69;;;22.71;73.47
28911;BME280;16028;42.642;23.310;2023-08-21T05:40:40;94431.53;;;22.70;74.00
28911;BME280;16028;42.642;23.310;2023-08-21T05:43:08;94422.75;;;22.70;74.13
28911;BME280;16028;42.642;23.310;2023-08-21T05:45:35;94422.97;;;22.68;73.56
28911;BME280;16028;42.642;23.310;2023-08-21T05:48:05;94430.47;;;22.78;71.53
28911;BME280;16028;42.642;23.310;2023-08-21T05:50:32;94428.41;;;22.80;72.64
28911;BME280;16028;42.642;23.310;2023-08-21T05:53:02;94421.81;;;22.95;72.46
28911;BME280;16028;42.642;23.310;2023-08-21T05:55:29;94421.81;;;22.95;73.41
28911;BME280;16028;42.642;23.310;2023-08-21T05:57:56;94416.28;;;22.97;73.87
28911;BME280;16028;42.642;23.310;2023-08-21T06:00:24;94412.44;;;22.93;74.63
28911;BME280;16028;42.642;23.310;2023-08-21T06:02:50;94413.34;;;23.11;73.39
28911;BME280;16028;42.642;23.310;2023-08-21T06:05:17;94411.75;;;23.42;71.43
28911;BME280;16028;42.642;23.310;2023-08-21T06:07:44;94418.03;;;23.90;66.90
28911;BME280;16028;42.642;23.310;2023-08-21T06:10:11;94417.59;;;23.93;67.32
28911;BME280;16028;42.642;23.310;2023-08-21T06:12:39;94414.09;;;23.99;69.03
28911;BME280;16028;42.642;23.310;2023-08-21T06:15:07;94422.47;;;24.21;66.72
28911;BME280;16028;42.642;23.310;2023-08-21T06:17:36;94423.88;;;24.23;68.41
28911;BME280;16028;42.642;23.310;2023-08-21T06:20:03;94424.88;;;24.47;66.83
28911;BME280;16028;42.642;23.310;2023-08-21T06:22:31;94421.22;;;24.60;65.69
28911;BME280;16028;42.642;23.310;2023-08-21T06:24:58;94430.59;;;24.62;66.51
28911;BME280;16028;42.642;23.310;2023-08-21T06:27:24;94423.13;;;24.71;67.61
28911;BME280;16028;42.642;23.310;2023-08-21T06:29:51;94426.84;;;24.88;65.97
28911;BME280;16028;42.642;23.310;2023-08-21T06:32:18;94423.28;;;24.94;66.48
28911;BME280;16028;42.642;23.310;2023-08-21T06:34:46;94430.00;;;24.97;64.91
28911;BME280;16028;42.642;23.310;2023-08-21T06:37:13;94430.44;;;24.94;62.63
28911;BME280;16028;42.642;23.310;2023-08-21T06:39:40;94436.22;;;24.91;62.50
28911;BME280;16028;42.642;23.310;2023-08-21T06:42:07;94436.91;;;25.27;59.90
28911;BME280;16028;42.642;23.310;2023-08-21T06:44:33;94432.75;;;25.20;60.05
28911;BME280;16028;42.642;23.310;2023-08-21T06:47:00;94429.81;;;25.10;59.83
28911;BME280;16028;42.642;23.310;2023-08-21T06:49:27;94438.00;;;25.38;57.70
28911;BME280;16028;42.642;23.310;2023-08-21T06:51:55;94436.72;;;25.59;56.08
28911;BME280;16028;42.642;23.310;2023-08-21T06:54:22;94440.56;;;25.86;55.56
28911;BME280;16028;42.642;23.310;2023-08-21T06:56:48;94438.34;;;25.71;55.38
28911;BME280;16028;42.642;23.310;2023-08-21T06:59:15;94442.34;;;25.51;57.26
28911;BME280;16028;42.642;23.310;2023-08-21T07:01:42;94440.31;;;25.35;58.03
28911;BME280;16028;42.642;23.310;2023-08-21T07:04:09;94436.09;;;25.57;56.30
28911;BME280;16028;42.642;23.310;2023-08-21T07:06:35;94430.88;;;25.50;56.12
28911;BME280;16028;42.642;23.310;2023-08-21T07:09:04;94443.03;;;25.46;57.82
28911;BME280;16028;42.642;23.310;2023-08-21T07:11:30;94440.38;;;25.46;55.62
28911;BME280;16028;42.642;23.310;2023-08-21T07:13:57;94440.13;;;25.48;56.11
28911;BME280;16028;42.642;23.310;2023-08-21T07:16:24;94442.88;;;25.41;57.43
28911;BME280;16028;42.642;23.310;2023-08-21T07:18:51;94444.00;;;25.34;58.55
28911;BME280;16028;42.642;23.310;2023-08-21T07:21:18;94432.41;;;25.28;59.39
28911;BME280;16028;42.642;23.310;2023-08-21T07:23:48;94439.75;;;25.33;57.00
28911;BME280;16028;42.642;23.310;2023-08-21T07:26:16;94442.41;;;25.33;56.48
28911;BME280;16028;42.642;23.310;2023-08-21T07:28:43;94439.63;;;25.39;54.54
28911;BME280;16028;42.642;23.310;2023-08-21T07:31:10;94443.38;;;25.50;53.59
28911;BME280;16028;42.642;23.310;2023-08-21T07:33:37;94446.00;;;25.91;50.91
28911;BME280;16028;42.642;23.310;2023-08-21T07:36:05;94427.69;;;25.95;52.47
28911;BME280;16028;42.642;23.310;2023-08-21T07:38:32;94430.75;;;26.21;52.31
28911;BME280;16028;42.642;23.310;2023-08-21T07:41:03;94437.56;;;26.17;50.72
28911;BME280;16028;42.642;23.310;2023-08-21T07:43:32;94436.16;;;26.03;52.15
28911;BME280;16028;42.642;23.310;2023-08-21T07:46:02;94431.03;;;26.13;51.94
28911;BME280;16028;42.642;23.310;2023-08-21T07:48:29;94430.38;;;26.18;51.58
28911;BME280;16028;42.642;23.310;2023-08-21T07:50:56;94430.97;;;26.20;51.61
28911;BME280;16028;42.642;23.310;2023-08-21T07:53:23;94428.97;;;26.15;51.18
28911;BME280;16028;42.642;23.310;2023-08-21T07:55:50;94429.47;;;26.36;50.76
28911;BME280;16028;42.642;23.310;2023-08-21T07:58:17;94433.50;;;26.50;50.48
28911;BME280;16028;42.642;23.310;2023-08-21T08:00:45;94434.81;;;26.36;50.89
28911;BME280;16028;42.642;23.310;2023-08-21T08:03:13;94426.66;;;26.30;50.80
28911;BME280;16028;42.642;23.310;2023-08-21T08:05:40;94421.81;;;26.27;51.24
28911;BME280;16028;42.642;23.310;2023-08-21T08:08:07;94416.94;;;26.24;51.79
28911;BME280;16028;42.642;23.310;2023-08-21T08:10:37;94417.13;;;26.58;51.38
28911;BME280;16028;42.642;23.310;2023-08-21T08:13:04;94421.78;;;26.51;51.67
28911;BME280;16028;42.642;23.310;2023-08-21T08:15:31;94414.09;;;26.54;50.64
28911;BME280;16028;42.642;23.310;2023-08-21T08:18:00;94423.16;;;26.53;50.37
28911;BME280;16028;42.642;23.310;2023-08-21T08:20:27;94418.69;;;26.82;49.34
28911;BME280;16028;42.642;23.310;2023-08-21T08:22:54;94420.66;;;26.75;49.95
28911;BME280;16028;42.642;23.310;2023-08-21T08:25:21;94420.91;;;26.85;48.31
28911;BME280;16028;42.642;23.310;2023-08-21T08:27:51;94420.28;;;26.95;47.87
28911;BME280;16028;42.642;23.310;2023-08-21T08:30:18;94420.50;;;26.93;48.33
28911;BME280;16028;42.642;23.310;2023-08-21T08:32:45;94420.06;;;26.96;47.91
28911;BME280;16028;42.642;23.310;2023-08-21T08:35:14;94419.47;;;26.94;47.60
28911;BME280;16028;42.642;23.310;2023-08-21T08:37:41;94402.41;;;26.95;48.63
28911;BME280;16028;42.642;23.310;2023-08-21T08:40:09;94419.63;;;27.44;47.38
28911;BME280;16028;42.642;23.310;2023-08-21T08:42:36;94415.19;;;27.50;45.21
28911;BME280;16028;42.642;23.310;2023-08-21T08:45:04;94397.44;;;27.44;47.19
28911;BME280;16028;42.642;23.310;2023-08-21T08:47:35;94397.69;;;27.59;46.76
28911;BME280;16028;42.642;23.310;2023-08-21T08:50:02;94396.22;;;27.51;46.64
28911;BME280;16028;42.642;23.310;2023-08-21T08:52:34;94403.84;;;27.59;45.45
28911;BME280;16028;42.642;23.310;2023-08-21T08:55:01;94405.63;;;27.54;44.52
28911;BME280;16028;42.642;23.310;2023-08-21T08:57:29;94390.03;;;27.51;46.25
28911;BME280;16028;42.642;23.310;2023-08-21T08:59:56;94398.34;;;27.66;45.22
28911;BME280;16028;42.642;23.310;2023-08-21T09:02:24;94400.44;;;27.80;43.34
28911;BME280;16028;42.642;23.310;2023-08-21T09:04:51;94395.72;;;27.71;45.27
28911;BME280;16028;42.642;23.310;2023-08-21T09:07:18;94389.25;;;27.67;45.35
28911;BME280;16028;42.642;23.310;2023-08-21T09:09:48;94386.00;;;27.81;45.86
28911;BME280;16028;42.642;23.310;2023-08-21T09:12:16;94380.66;;;27.81;46.86
28911;BME280;16028;42.642;23.310;2023-08-21T09:14:44;94382.75;;;27.96;48.03
28911;BME280;16028;42.642;23.310;2023-08-21T09:17:12;94385.66;;;28.11;46.57
28911;BME280;16028;42.642;23.310;2023-08-21T09:19:39;94378.72;;;28.10;46.29
28911;BME280;16028;42.642;23.310;2023-08-21T09:22:10;94388.28;;;28.06;44.95
28911;BME280;16028;42.642;23.310;2023-08-21T09:24:38;94396.47;;;28.38;43.40
28911;BME280;16028;42.642;23.310;2023-08-21T09:27:13;94414.22;;;28.82;41.00
28911;BME280;16028;42.642;23.310;2023-08-21T09:29:40;94406.19;;;28.82;41.04
28911;BME280;16028;42.642;23.310;2023-08-21T09:32:07;94399.84;;;28.67;41.86
28911;BME280;16028;42.642;23.310;2023-08-21T09:34:35;94376.56;;;28.51;43.89
28911;BME280;16028;42.642;23.310;2023-08-21T09:37:05;94375.88;;;28.38;45.16
28911;BME280;16028;42.642;23.310;2023-08-21T09:39:33;94374.56;;;28.41;44.65
28911;BME280;16028;42.642;23.310;2023-08-21T09:42:00;94381.28;;;28.44;42.58
28911;BME280;16028;42.642;23.310;2023-08-21T09:44:29;94370.59;;;28.44;43.63
28911;BME280;16028;42.642;23.310;2023-08-21T09:47:01;94380.66;;;28.75;41.09
28911;BME280;16028;42.642;23.310;2023-08-21T09:49:29;94392.75;;;29.04;39.72
28911;BME280;16028;42.642;23.310;2023-08-21T09:51:57;94396.63;;;29.13;39.66
28911;BME280;16028;42.642;23.310;2023-08-21T09:54:24;94386.38;;;29.10;39.58
28911;BME280;16028;42.642;23.310;2023-08-21T09:56:51;94396.13;;;29.16;39.13
28911;BME280;16028;42.642;23.310;2023-08-21T09:59:18;94374.25;;;29.24;40.55
28911;BME280;16028;42.642;23.310;2023-08-21T10:01:49;94360.34;;;29.06;41.68
28911;BME280;16028;42.642;23.310;2023-08-21T10:04:17;94365.41;;;29.02;41.27
28911;BME280;16028;42.642;23.310;2023-08-21T10:06:46;94353.13;;;29.06;43.20
28911;BME280;16028;42.642;23.310;2023-08-21T10:09:14;94384.66;;;29.48;38.58
28911;BME280;16028;42.642;23.310;2023-08-21T10:11:42;94371.50;;;29.19;39.32
28911;BME280;16028;42.642;23.310;2023-08-21T10:14:10;94362.38;;;29.20;40.00
28911;BME280;16028;42.642;23.310;2023-08-21T10:16:37;94346.75;;;29.12;42.61
28911;BME280;16028;42.642;23.310;2023-08-21T10:19:05;94345.44;;;29.15;42.31
28911;BME280;16028;42.642;23.310;2023-08-21T10:21:35;94356.31;;;29.30;40.09
28911;BME280;16028;42.642;23.310;2023-08-21T10:24:03;94348.03;;;29.31;41.08
28911;BME280;16028;42.642;23.310;2023-08-21T10:26:30;94339.69;;;29.28;40.10
28911;BME280;16028;42.642;23.310;2023-08-21T10:28:59;94371.16;;;29.74;36.54
28911;BME280;16028;42.642;23.310;2023-08-21T10:31:32;94352.78;;;29.51;38.79
28911;BME280;16028;42.642;23.310;2023-08-21T10:34:01;94357.34;;;29.87;37.91
28911;BME280;16028;42.642;23.310;2023-08-21T10:37:04;94340.88;;;29.74;38.88
28911;BME280;16028;42.642;23.310;2023-08-21T10:39:33;94326.31;;;29.65;40.72
28911;BME280;16028;42.642;23.310;2023-08-21T10:42:05;94351.16;;;29.87;37.24
28911;BME280;16028;42.642;23.310;2023-08-21T10:44:49;94316.75;;;29.79;39.78
28911;BME280;16028;42.642;23.310;2023-08-21T10:47:18;94310.38;;;29.85;41.74
28911;BME280;16028;42.642;23.310;2023-08-21T10:49:46;94332.72;;;29.96;37.97
28911;BME280;16028;42.642;23.310;2023-08-21T10:52:15;94325.53;;;30.06;39.63
28911;BME280;16028;42.642;23.310;2023-08-21T10:54:47;94314.31;;;30.14;39.85
28911;BME280;16028;42.642;23.310;2023-08-21T10:57:14;94326.94;;;30.19;38.98
28911;BME280;16028;42.642;23.310;2023-08-21T10:59:51;94334.53;;;30.32;38.37
28911;BME280;16028;42.642;23.310;2023-08-21T11:02:18;94350.41;;;30.38;35.63
28911;BME280;16028;42.642;23.310;2023-08-21T11:04:45;94316.63;;;30.42;37.63
28911;BME280;16028;42.642;23.310;2023-08-21T11:07:12;94318.44;;;30.37;38.00
28911;BME280;16028;42.642;23.310;2023-08-21T11:09:40;94320.97;;;30.54;37.48
28911;BME280;16028;42.642;23.310;2023-08-21T11:12:09;94328.47;;;30.52;36.24
28911;BME280;16028;42.642;23.310;2023-08-21T11:14:37;94319.31;;;30.48;36.70
28911;BME280;16028;42.642;23.310;2023-08-21T11:17:04;94329.03;;;30.54;35.54
28911;BME280;16028;42.642;23.310;2023-08-21T11:19:31;94341.69;;;30.68;34.55
28911;BME280;16028;42.642;23.310;2023-08-21T11:21:59;94336.03;;;30.65;34.70
28911;BME280;16028;42.642;23.310;2023-08-21T11:24:41;94328.28;;;30.73;34.64
28911;BME280;16028;42.642;23.310;2023-08-21T11:27:08;94330.72;;;30.75;34.03
28911;BME280;16028;42.642;23.310;2023-08-21T11:29:38;94312.94;;;30.59;35.15
28911;BME280;16028;42.642;23.310;2023-08-21T11:32:08;94311.31;;;30.58;35.61
28911;BME280;16028;42.642;23.310;2023-08-21T11:34:35;94299.84;;;30.87;35.75
28911;BME280;16028;42.642;23.310;2023-08-21T11:37:03;94308.69;;;30.73;36.07
28911;BME280;16028;42.642;23.310;2023-08-21T11:39:41;94299.00;;;30.77;35.90
28911;BME280;16028;42.642;23.310;2023-08-21T11:42:09;94293.34;;;30.73;36.32
28911;BME280;16028;42.642;23.310;2023-08-21T11:44:44;94302.28;;;30.99;35.79
28911;BME280;16028;42.642;23.310;2023-08-21T11:47:12;94313.88;;;31.05;35.03
28911;BME280;16028;42.642;23.310;2023-08-21T11:49:40;94298.03;;;31.18;34.91
28911;BME280;16028;42.642;23.310;2023-08-21T11:52:08;94306.91;;;31.24;34.89
28911;BME280;16028;42.642;23.310;2023-08-21T11:54:35;94301.50;;;31.09;34.55
28911;BME280;16028;42.642;23.310;2023-08-21T11:57:07;94300.16;;;31.11;34.33
28911;BME280;16028;42.642;23.310;2023-08-21T11:59:35;94292.91;;;31.12;33.89
28911;BME280;16028;42.642;23.310;2023-08-21T12:02:08;94316.88;;;31.38;32.69
28911;BME280;16028;42.642;23.310;2023-08-21T12:04:35;94300.19;;;31.31;35.66
28911;BME280;16028;42.642;23.310;2023-08-21T12:07:02;94292.38;;;31.20;35.21
28911;BME280;16028;42.642;23.310;2023-08-21T12:09:29;94294.28;;;31.29;35.62
28911;BME280;16028;42.642;23.310;2023-08-21T12:11:56;94327.66;;;31.74;31.04
28911;BME280;16028;42.642;23.310;2023-08-21T12:14:25;94326.84;;;31.53;31.47
28911;BME280;16028;42.642;23.310;2023-08-21T12:16:52;94308.78;;;31.28;32.11
28911;BME280;16028;42.642;23.310;2023-08-21T12:19:19;94273.28;;;31.21;36.96
28911;BME280;16028;42.642;23.310;2023-08-21T12:21:47;94320.38;;;31.69;30.46
28911;BME280;16028;42.642;23.310;2023-08-21T12:24:13;94327.38;;;31.50;29.94
28911;BME280;16028;42.642;23.310;2023-08-21T12:26:40;94309.06;;;31.37;32.57
28911;BME280;16028;42.642;23.310;2023-08-21T12:29:07;94315.53;;;31.56;31.90
28911;BME280;16028;42.642;23.310;2023-08-21T12:31:35;94282.19;;;31.62;35.39
28911;BME280;16028;42.642;23.310;2023-08-21T12:34:02;94255.56;;;31.61;35.58
28911;BME280;16028;42.642;23.310;2023-08-21T12:36:29;94286.72;;;31.87;33.00
28911;BME280;16028;42.642;23.310;2023-08-21T12:38:56;94311.47;;;32.09;29.89
28911;BME280;16028;42.642;23.310;2023-08-21T12:41:23;94335.13;;;32.27;28.68
28911;BME280;16028;42.642;23.310;2023-08-21T12:43:49;94320.63;;;32.03;29.70
28911;BME280;16028;42.642;23.310;2023-08-21T12:46:16;94322.78;;;32.16;29.17
28911;BME280;16028;42.642;23.310;2023-08-21T12:48:44;94317.69;;;31.79;29.78
28911;BME280;16028;42.642;23.310;2023-08-21T12:51:11;94287.50;;;31.92;31.48
28911;BME280;16028;42.642;23.310;2023-08-21T12:53:38;94305.22;;;32.24;30.16